Gooderham, Canada
Current Conditions -  °F | °C
As of 1:12 AM on Tuesday 21 Oct 2014 (Local Time) from CYQA Reporting Station
Light Rain Light Rain  
Wind Chill: 46°   Ceiling: 300
Heat Index: 46°   Visibility: 1.2mi
Dew Point: 46°   Wind: 2mph
Humidity: 100%   Direction: 120°ESE
Pressure: 29.77"   Gusts: NA
Location:  44.9°N, 78.38°W
Report Text: CYQA 210512Z AUTO 12002KT 1 1/4SM -RA BR OVC003 08/08 A2977 RMK PCPN 0.5MM PAST HR SLP088
Loading
Personal Weather Stations






























Interactive Weather Map
Tropical Storm Tracking
New forecast layout! Learn more

10-Day Weather Forecast

Advertisements
Track Severe Weather on mobile